sensor_id;sensor_type;location;lat;lon;timestamp;pressure;altitude;pressure_sealevel;temperature;humidity
7026;BME280;3554;42.132;24.786;2023-05-21T00:00:50;100559.63;;;17.70;100.00
7026;BME280;3554;42.132;24.786;2023-05-21T00:03:18;100597.41;;;17.74;100.00
7026;BME280;3554;42.132;24.786;2023-05-21T00:05:45;100590.16;;;17.94;100.00
7026;BME280;3554;42.132;24.786;2023-05-21T00:08:14;100492.72;;;17.67;100.00
7026;BME280;3554;42.132;24.786;2023-05-21T00:10:41;100526.91;;;17.88;100.00
7026;BME280;3554;42.132;24.786;2023-05-21T00:13:08;100505.22;;;17.97;100.00
7026;BME280;3554;42.132;24.786;2023-05-21T00:15:36;100490.22;;;18.13;100.00
7026;BME280;3554;42.132;24.786;2023-05-21T00:18:03;100440.47;;;18.03;100.00
7026;BME280;3554;42.132;24.786;2023-05-21T00:20:30;100472.88;;;17.91;100.00
7026;BME280;3554;42.132;24.786;2023-05-21T00:22:57;100474.97;;;18.01;100.00
7026;BME280;3554;42.132;24.786;2023-05-21T00:25:27;100450.28;;;18.01;100.00
7026;BME280;3554;42.132;24.786;2023-05-21T00:27:54;100436.19;;;18.16;100.00
7026;BME280;3554;42.132;24.786;2023-05-21T00:30:21;100349.91;;;17.95;100.00
7026;BME280;3554;42.132;24.786;2023-05-21T00:32:49;100350.00;;;17.93;100.00
7026;BME280;3554;42.132;24.786;2023-05-21T00:35:17;100405.91;;;18.04;100.00
7026;BME280;3554;42.132;24.786;2023-05-21T00:37:44;100441.25;;;17.88;100.00
7026;BME280;3554;42.132;24.786;2023-05-21T00:40:12;100451.91;;;17.71;100.00
7026;BME280;3554;42.132;24.786;2023-05-21T00:42:39;100455.47;;;17.70;100.00
7026;BME280;3554;42.132;24.786;2023-05-21T00:45:07;100437.16;;;17.82;100.00
7026;BME280;3554;42.132;24.786;2023-05-21T00:47:34;100461.03;;;17.65;100.00
7026;BME280;3554;42.132;24.786;2023-05-21T00:50:03;100515.84;;;17.63;100.00
7026;BME280;3554;42.132;24.786;2023-05-21T00:52:31;100529.78;;;17.67;100.00
7026;BME280;3554;42.132;24.786;2023-05-21T00:54:57;100546.69;;;17.81;100.00
7026;BME280;3554;42.132;24.786;2023-05-21T00:57:25;100503.00;;;17.73;100.00
7026;BME280;3554;42.132;24.786;2023-05-21T00:59:53;100527.94;;;17.69;100.00
7026;BME280;3554;42.132;24.786;2023-05-21T01:02:19;100536.78;;;17.51;100.00
7026;BME280;3554;42.132;24.786;2023-05-21T01:04:48;100654.00;;;17.54;100.00
7026;BME280;3554;42.132;24.786;2023-05-21T01:07:17;100764.50;;;17.51;100.00
7026;BME280;3554;42.132;24.786;2023-05-21T01:09:43;100876.88;;;17.44;100.00
7026;BME280;3554;42.132;24.786;2023-05-21T01:12:11;100969.69;;;17.41;100.00
7026;BME280;3554;42.132;24.786;2023-05-21T01:14:38;101030.88;;;17.33;100.00
7026;BME280;3554;42.132;24.786;2023-05-21T01:17:06;101090.41;;;17.45;100.00
7026;BME280;3554;42.132;24.786;2023-05-21T01:19:35;101080.19;;;17.36;100.00
7026;BME280;3554;42.132;24.786;2023-05-21T01:22:04;101079.13;;;17.40;100.00
7026;BME280;3554;42.132;24.786;2023-05-21T01:24:32;101056.13;;;17.42;100.00
7026;BME280;3554;42.132;24.786;2023-05-21T01:27:00;101105.97;;;17.31;100.00
7026;BME280;3554;42.132;24.786;2023-05-21T01:29:27;101165.69;;;17.38;100.00
7026;BME280;3554;42.132;24.786;2023-05-21T01:31:59;101166.09;;;17.50;100.00
7026;BME280;3554;42.132;24.786;2023-05-21T01:34:33;101168.78;;;17.27;100.00
7026;BME280;3554;42.132;24.786;2023-05-21T01:37:09;101138.75;;;17.28;100.00
7026;BME280;3554;42.132;24.786;2023-05-21T01:39:42;101110.47;;;17.29;100.00
7026;BME280;3554;42.132;24.786;2023-05-21T01:42:14;101086.19;;;17.41;100.00
7026;BME280;3554;42.132;24.786;2023-05-21T01:44:41;101037.78;;;17.37;100.00
7026;BME280;3554;42.132;24.786;2023-05-21T01:47:09;100998.91;;;17.38;100.00
7026;BME280;3554;42.132;24.786;2023-05-21T01:49:36;100984.69;;;17.40;100.00
7026;BME280;3554;42.132;24.786;2023-05-21T01:52:03;100951.88;;;17.44;100.00
7026;BME280;3554;42.132;24.786;2023-05-21T01:54:30;100911.09;;;17.48;100.00
7026;BME280;3554;42.132;24.786;2023-05-21T01:56:58;100877.22;;;17.36;100.00
7026;BME280;3554;42.132;24.786;2023-05-21T01:59:26;100858.16;;;17.28;100.00
7026;BME280;3554;42.132;24.786;2023-05-21T02:01:54;100864.69;;;17.20;100.00
7026;BME280;3554;42.132;24.786;2023-05-21T02:04:21;100880.78;;;17.15;100.00
7026;BME280;3554;42.132;24.786;2023-05-21T02:06:47;100941.06;;;17.08;100.00
7026;BME280;3554;42.132;24.786;2023-05-21T02:09:14;101007.53;;;17.01;100.00
7026;BME280;3554;42.132;24.786;2023-05-21T02:11:41;101012.38;;;17.11;100.00
7026;BME280;3554;42.132;24.786;2023-05-21T02:14:10;101001.72;;;17.13;100.00
7026;BME280;3554;42.132;24.786;2023-05-21T02:16:38;100997.69;;;17.04;100.00
7026;BME280;3554;42.132;24.786;2023-05-21T02:19:06;100977.75;;;17.18;100.00
7026;BME280;3554;42.132;24.786;2023-05-21T02:21:34;100960.25;;;17.13;100.00
7026;BME280;3554;42.132;24.786;2023-05-21T02:24:01;100914.47;;;17.11;100.00
7026;BME280;3554;42.132;24.786;2023-05-21T02:26:28;100894.34;;;17.28;100.00
7026;BME280;3554;42.132;24.786;2023-05-21T02:28:56;100844.22;;;17.25;100.00
7026;BME280;3554;42.132;24.786;2023-05-21T02:31:24;100849.25;;;17.10;100.00
7026;BME280;3554;42.132;24.786;2023-05-21T02:33:51;100872.63;;;17.20;100.00
7026;BME280;3554;42.132;24.786;2023-05-21T02:36:18;100855.06;;;17.39;100.00
7026;BME280;3554;42.132;24.786;2023-05-21T02:38:44;100785.84;;;17.48;100.00
7026;BME280;3554;42.132;24.786;2023-05-21T02:41:12;100764.09;;;17.40;100.00
7026;BME280;3554;42.132;24.786;2023-05-21T02:43:39;100767.47;;;17.25;100.00
7026;BME280;3554;42.132;24.786;2023-05-21T02:46:06;100783.03;;;17.31;100.00
7026;BME280;3554;42.132;24.786;2023-05-21T02:48:34;100799.88;;;17.30;100.00
7026;BME280;3554;42.132;24.786;2023-05-21T02:51:01;100845.59;;;17.13;100.00
7026;BME280;3554;42.132;24.786;2023-05-21T02:53:27;100850.41;;;17.24;100.00
7026;BME280;3554;42.132;24.786;2023-05-21T02:55:54;100790.75;;;17.17;100.00
7026;BME280;3554;42.132;24.786;2023-05-21T02:58:21;100809.31;;;17.35;100.00
7026;BME280;3554;42.132;24.786;2023-05-21T03:00:50;100743.06;;;17.37;100.00
7026;BME280;3554;42.132;24.786;2023-05-21T03:03:18;100717.72;;;17.51;100.00
7026;BME280;3554;42.132;24.786;2023-05-21T03:05:46;100654.19;;;17.68;100.00
7026;BME280;3554;42.132;24.786;2023-05-21T03:08:13;100562.72;;;17.78;100.00
7026;BME280;3554;42.132;24.786;2023-05-21T03:10:40;100488.81;;;17.74;100.00
7026;BME280;3554;42.132;24.786;2023-05-21T03:13:07;100456.56;;;17.66;100.00
7026;BME280;3554;42.132;24.786;2023-05-21T03:15:34;100484.00;;;17.65;100.00
7026;BME280;3554;42.132;24.786;2023-05-21T03:18:00;100509.47;;;17.50;100.00
7026;BME280;3554;42.132;24.786;2023-05-21T03:20:27;100588.34;;;17.61;100.00
7026;BME280;3554;42.132;24.786;2023-05-21T03:22:56;100594.22;;;17.67;100.00
7026;BME280;3554;42.132;24.786;2023-05-21T03:25:23;100612.19;;;17.61;100.00
7026;BME280;3554;42.132;24.786;2023-05-21T03:27:50;100663.59;;;17.57;100.00
7026;BME280;3554;42.132;24.786;2023-05-21T03:30:17;100697.94;;;17.58;100.00
7026;BME280;3554;42.132;24.786;2023-05-21T03:32:45;100727.88;;;17.60;100.00
7026;BME280;3554;42.132;24.786;2023-05-21T03:35:12;100717.22;;;17.42;100.00
7026;BME280;3554;42.132;24.786;2023-05-21T03:37:39;100711.66;;;17.29;100.00
7026;BME280;3554;42.132;24.786;2023-05-21T03:40:08;100834.78;;;17.38;100.00
7026;BME280;3554;42.132;24.786;2023-05-21T03:42:35;100897.41;;;17.39;100.00
7026;BME280;3554;42.132;24.786;2023-05-21T03:45:02;100932.63;;;17.41;100.00
7026;BME280;3554;42.132;24.786;2023-05-21T03:47:29;100939.69;;;17.40;100.00
7026;BME280;3554;42.132;24.786;2023-05-21T03:49:55;100958.78;;;17.27;100.00
7026;BME280;3554;42.132;24.786;2023-05-21T03:52:22;101005.16;;;17.37;100.00
7026;BME280;3554;42.132;24.786;2023-05-21T03:54:49;101006.84;;;17.38;100.00
7026;BME280;3554;42.132;24.786;2023-05-21T03:57:17;100989.59;;;17.29;100.00
7026;BME280;3554;42.132;24.786;2023-05-21T03:59:44;100958.53;;;17.33;100.00
7026;BME280;3554;42.132;24.786;2023-05-21T04:02:11;100974.34;;;17.34;100.00
7026;BME280;3554;42.132;24.786;2023-05-21T04:04:37;100947.56;;;17.42;100.00
7026;BME280;3554;42.132;24.786;2023-05-21T04:07:04;100898.41;;;17.56;100.00
7026;BME280;3554;42.132;24.786;2023-05-21T04:09:39;100790.75;;;17.55;100.00
7026;BME280;3554;42.132;24.786;2023-05-21T04:12:05;100738.19;;;17.48;100.00
7026;BME280;3554;42.132;24.786;2023-05-21T04:14:34;100705.91;;;17.75;100.00
7026;BME280;3554;42.132;24.786;2023-05-21T04:17:02;100655.50;;;17.60;100.00
7026;BME280;3554;42.132;24.786;2023-05-21T04:19:30;100567.25;;;17.59;100.00
7026;BME280;3554;42.132;24.786;2023-05-21T04:21:56;100499.72;;;17.51;100.00
7026;BME280;3554;42.132;24.786;2023-05-21T04:24:23;100492.47;;;17.71;100.00
7026;BME280;3554;42.132;24.786;2023-05-21T04:26:50;100466.41;;;17.64;100.00
7026;BME280;3554;42.132;24.786;2023-05-21T04:29:17;100493.09;;;17.76;100.00
7026;BME280;3554;42.132;24.786;2023-05-21T04:31:46;100421.84;;;17.87;100.00
7026;BME280;3554;42.132;24.786;2023-05-21T04:34:13;100372.84;;;17.96;100.00
7026;BME280;3554;42.132;24.786;2023-05-21T04:36:42;100388.66;;;17.97;100.00
7026;BME280;3554;42.132;24.786;2023-05-21T04:39:09;100397.63;;;18.10;100.00
7026;BME280;3554;42.132;24.786;2023-05-21T04:41:36;100377.56;;;18.22;100.00
7026;BME280;3554;42.132;24.786;2023-05-21T04:44:03;100309.50;;;17.91;100.00
7026;BME280;3554;42.132;24.786;2023-05-21T04:46:30;100325.47;;;18.05;100.00
7026;BME280;3554;42.132;24.786;2023-05-21T04:48:58;100320.88;;;17.93;100.00
7026;BME280;3554;42.132;24.786;2023-05-21T04:51:27;100336.50;;;17.98;100.00
7026;BME280;3554;42.132;24.786;2023-05-21T04:53:54;100313.06;;;18.22;100.00
7026;BME280;3554;42.132;24.786;2023-05-21T04:56:22;100322.66;;;18.24;100.00
7026;BME280;3554;42.132;24.786;2023-05-21T05:01:36;100296.25;;;18.23;100.00
7026;BME280;3554;42.132;24.786;2023-05-21T05:04:04;100291.63;;;18.26;100.00
7026;BME280;3554;42.132;24.786;2023-05-21T05:06:31;100252.03;;;18.23;100.00
7026;BME280;3554;42.132;24.786;2023-05-21T05:08:57;100265.47;;;18.20;100.00
7026;BME280;3554;42.132;24.786;2023-05-21T05:11:24;100286.03;;;18.31;100.00
7026;BME280;3554;42.132;24.786;2023-05-21T05:13:51;100233.50;;;18.37;100.00
7026;BME280;3554;42.132;24.786;2023-05-21T05:16:18;100210.28;;;18.42;100.00
7026;BME280;3554;42.132;24.786;2023-05-21T05:18:49;100197.53;;;18.63;100.00
7026;BME280;3554;42.132;24.786;2023-05-21T05:21:19;100136.25;;;18.53;100.00
7026;BME280;3554;42.132;24.786;2023-05-21T05:23:46;100111.91;;;18.47;100.00
7026;BME280;3554;42.132;24.786;2023-05-21T05:26:12;100152.16;;;18.24;100.00
7026;BME280;3554;42.132;24.786;2023-05-21T05:28:39;100168.59;;;18.44;100.00
7026;BME280;3554;42.132;24.786;2023-05-21T05:31:06;100166.16;;;18.55;100.00
7026;BME280;3554;42.132;24.786;2023-05-21T05:33:33;100189.00;;;18.58;100.00
7026;BME280;3554;42.132;24.786;2023-05-21T05:36:00;100207.28;;;18.62;100.00
7026;BME280;3554;42.132;24.786;2023-05-21T05:38:28;100185.13;;;18.63;100.00
7026;BME280;3554;42.132;24.786;2023-05-21T05:40:55;100210.06;;;18.75;100.00
7026;BME280;3554;42.132;24.786;2023-05-21T05:43:23;100152.75;;;18.86;100.00
7026;BME280;3554;42.132;24.786;2023-05-21T05:45:50;100124.25;;;18.76;100.00
7026;BME280;3554;42.132;24.786;2023-05-21T05:48:17;100155.00;;;18.64;100.00
7026;BME280;3554;42.132;24.786;2023-05-21T05:50:44;100173.75;;;18.47;100.00
7026;BME280;3554;42.132;24.786;2023-05-21T05:53:11;100343.41;;;18.63;100.00
7026;BME280;3554;42.132;24.786;2023-05-21T05:55:40;100468.16;;;18.61;100.00
7026;BME280;3554;42.132;24.786;2023-05-21T05:58:07;100477.91;;;18.28;100.00
7026;BME280;3554;42.132;24.786;2023-05-21T06:00:33;100543.69;;;18.37;100.00
7026;BME280;3554;42.132;24.786;2023-05-21T06:03:01;100594.25;;;18.34;100.00
7026;BME280;3554;42.132;24.786;2023-05-21T06:05:27;100652.41;;;18.37;100.00
7026;BME280;3554;42.132;24.786;2023-05-21T06:07:54;100687.44;;;18.27;100.00
7026;BME280;3554;42.132;24.786;2023-05-21T06:10:21;100759.78;;;18.11;100.00
7026;BME280;3554;42.132;24.786;2023-05-21T06:12:49;100802.00;;;17.97;100.00
7026;BME280;3554;42.132;24.786;2023-05-21T06:15:16;100848.88;;;18.14;100.00
7026;BME280;3554;42.132;24.786;2023-05-21T06:17:44;100800.13;;;17.99;100.00
7026;BME280;3554;42.132;24.786;2023-05-21T06:20:11;100779.03;;;18.15;100.00
7026;BME280;3554;42.132;24.786;2023-05-21T06:22:38;100756.56;;;18.41;100.00
7026;BME280;3554;42.132;24.786;2023-05-21T06:25:06;100715.84;;;18.59;100.00
7026;BME280;3554;42.132;24.786;2023-05-21T06:27:34;100599.78;;;18.79;100.00
7026;BME280;3554;42.132;24.786;2023-05-21T06:30:03;100478.66;;;18.78;100.00
7026;BME280;3554;42.132;24.786;2023-05-21T06:32:30;100362.16;;;18.89;100.00
7026;BME280;3554;42.132;24.786;2023-05-21T06:34:57;100306.06;;;18.81;100.00
7026;BME280;3554;42.132;24.786;2023-05-21T06:37:24;100318.66;;;18.78;100.00
7026;BME280;3554;42.132;24.786;2023-05-21T06:39:51;100328.25;;;18.65;100.00
7026;BME280;3554;42.132;24.786;2023-05-21T06:42:17;100325.22;;;18.86;100.00
7026;BME280;3554;42.132;24.786;2023-05-21T06:44:44;100336.81;;;18.70;100.00
7026;BME280;3554;42.132;24.786;2023-05-21T06:47:12;100404.38;;;18.94;100.00
7026;BME280;3554;42.132;24.786;2023-05-21T06:49:39;100554.16;;;19.04;100.00
7026;BME280;3554;42.132;24.786;2023-05-21T06:52:06;100726.91;;;18.99;100.00
7026;BME280;3554;42.132;24.786;2023-05-21T06:54:33;100858.44;;;18.71;100.00
7026;BME280;3554;42.132;24.786;2023-05-21T06:57:00;101022.41;;;18.46;100.00
7026;BME280;3554;42.132;24.786;2023-05-21T06:59:27;101164.44;;;18.51;100.00
7026;BME280;3554;42.132;24.786;2023-05-21T07:01:53;101221.16;;;18.49;100.00
7026;BME280;3554;42.132;24.786;2023-05-21T07:04:21;101299.38;;;18.39;100.00
7026;BME280;3554;42.132;24.786;2023-05-21T07:06:48;101438.44;;;18.32;100.00
7026;BME280;3554;42.132;24.786;2023-05-21T07:09:16;101506.75;;;18.48;100.00
7026;BME280;3554;42.132;24.786;2023-05-21T07:11:43;101480.88;;;18.55;100.00
7026;BME280;3554;42.132;24.786;2023-05-21T07:14:10;101425.50;;;18.67;100.00
7026;BME280;3554;42.132;24.786;2023-05-21T07:16:36;101319.19;;;18.92;100.00
7026;BME280;3554;42.132;24.786;2023-05-21T07:19:03;101139.41;;;19.14;100.00
7026;BME280;3554;42.132;24.786;2023-05-21T07:21:31;100859.25;;;19.24;100.00
7026;BME280;3554;42.132;24.786;2023-05-21T07:23:58;100634.06;;;19.46;100.00
7026;BME280;3554;42.132;24.786;2023-05-21T07:26:25;100456.66;;;19.81;100.00
7026;BME280;3554;42.132;24.786;2023-05-21T07:28:52;100215.56;;;19.97;100.00
7026;BME280;3554;42.132;24.786;2023-05-21T07:31:18;100087.66;;;20.01;100.00
7026;BME280;3554;42.132;24.786;2023-05-21T07:33:45;99900.53;;;20.29;100.00
7026;BME280;3554;42.132;24.786;2023-05-21T07:36:12;99741.44;;;20.47;100.00
7026;BME280;3554;42.132;24.786;2023-05-21T07:38:40;99665.91;;;20.60;100.00
7026;BME280;3554;42.132;24.786;2023-05-21T07:41:07;99598.81;;;20.68;100.00
7026;BME280;3554;42.132;24.786;2023-05-21T07:43:34;99498.06;;;20.63;100.00
7026;BME280;3554;42.132;24.786;2023-05-21T07:46:01;99468.28;;;20.91;100.00
7026;BME280;3554;42.132;24.786;2023-05-21T07:48:28;99440.69;;;20.92;100.00
7026;BME280;3554;42.132;24.786;2023-05-21T07:50:55;99449.75;;;21.12;100.00
7026;BME280;3554;42.132;24.786;2023-05-21T07:53:22;99460.53;;;21.10;100.00
7026;BME280;3554;42.132;24.786;2023-05-21T07:55:50;99526.63;;;21.05;100.00
7026;BME280;3554;42.132;24.786;2023-05-21T07:58:17;99458.22;;;21.06;100.00
7026;BME280;3554;42.132;24.786;2023-05-21T08:00:45;99371.72;;;21.32;100.00
7026;BME280;3554;42.132;24.786;2023-05-21T08:03:13;99321.28;;;21.61;100.00
7026;BME280;3554;42.132;24.786;2023-05-21T08:05:41;99292.72;;;21.72;100.00
7026;BME280;3554;42.132;24.786;2023-05-21T08:08:09;99281.34;;;21.70;100.00
7026;BME280;3554;42.132;24.786;2023-05-21T08:10:37;99236.28;;;21.88;100.00
7026;BME280;3554;42.132;24.786;2023-05-21T08:13:05;99192.25;;;21.84;100.00
7026;BME280;3554;42.132;24.786;2023-05-21T08:15:32;99178.09;;;21.93;100.00
7026;BME280;3554;42.132;24.786;2023-05-21T08:17:59;99183.25;;;21.85;100.00
7026;BME280;3554;42.132;24.786;2023-05-21T08:20:25;99207.53;;;21.82;100.00
7026;BME280;3554;42.132;24.786;2023-05-21T08:22:53;99177.81;;;21.96;100.00
7026;BME280;3554;42.132;24.786;2023-05-21T08:25:20;99168.69;;;22.08;100.00
7026;BME280;3554;42.132;24.786;2023-05-21T08:27:46;99163.22;;;22.09;100.00
7026;BME280;3554;42.132;24.786;2023-05-21T08:30:15;99158.59;;;22.21;100.00
7026;BME280;3554;42.132;24.786;2023-05-21T08:32:41;99163.06;;;21.92;100.00
7026;BME280;3554;42.132;24.786;2023-05-21T08:35:08;99158.25;;;21.76;100.00
7026;BME280;3554;42.132;24.786;2023-05-21T08:37:35;99176.25;;;21.93;100.00
7026;BME280;3554;42.132;24.786;2023-05-21T08:40:02;99183.16;;;22.15;100.00
7026;BME280;3554;42.132;24.786;2023-05-21T08:42:37;99148.06;;;21.91;100.00
7026;BME280;3554;42.132;24.786;2023-05-21T08:45:05;99162.53;;;22.26;100.00
7026;BME280;3554;42.132;24.786;2023-05-21T08:47:35;99163.66;;;22.33;100.00
7026;BME280;3554;42.132;24.786;2023-05-21T08:50:03;99152.41;;;22.11;100.00
7026;BME280;3554;42.132;24.786;2023-05-21T08:52:31;99098.72;;;21.47;100.00
7026;BME280;3554;42.132;24.786;2023-05-21T08:54:58;99102.34;;;21.37;100.00
7026;BME280;3554;42.132;24.786;2023-05-21T08:57:26;99134.88;;;21.99;100.00
7026;BME280;3554;42.132;24.786;2023-05-21T08:59:53;99134.44;;;21.84;100.00
7026;BME280;3554;42.132;24.786;2023-05-21T09:02:20;99121.81;;;21.96;100.00
7026;BME280;3554;42.132;24.786;2023-05-21T09:04:52;99121.97;;;21.94;100.00
7026;BME280;3554;42.132;24.786;2023-05-21T09:07:23;99124.72;;;21.74;100.00
7026;BME280;3554;42.132;24.786;2023-05-21T09:09:54;99093.28;;;21.58;100.00
7026;BME280;3554;42.132;24.786;2023-05-21T09:12:22;99117.91;;;22.00;100.00
7026;BME280;3554;42.132;24.786;2023-05-21T09:14:49;99126.03;;;22.17;100.00
7026;BME280;3554;42.132;24.786;2023-05-21T09:17:16;99109.19;;;22.07;100.00
7026;BME280;3554;42.132;24.786;2023-05-21T09:20:06;99116.47;;;22.34;100.00
7026;BME280;3554;42.132;24.786;2023-05-21T09:22:39;99118.97;;;22.45;100.00
7026;BME280;3554;42.132;24.786;2023-05-21T09:25:07;99116.88;;;22.49;100.00
7026;BME280;3554;42.132;24.786;2023-05-21T09:27:34;99116.84;;;22.77;100.00
7026;BME280;3554;42.132;24.786;2023-05-21T09:30:02;99116.00;;;22.77;100.00
7026;BME280;3554;42.132;24.786;2023-05-21T09:32:29;99111.25;;;23.07;100.00
7026;BME280;3554;42.132;24.786;2023-05-21T09:34:55;99117.50;;;23.25;100.00
7026;BME280;3554;42.132;24.786;2023-05-21T09:37:24;99113.81;;;23.36;100.00
7026;BME280;3554;42.132;24.786;2023-05-21T09:39:52;99122.56;;;23.28;100.00
7026;BME280;3554;42.132;24.786;2023-05-21T09:42:19;99121.84;;;23.36;100.00
7026;BME280;3554;42.132;24.786;2023-05-21T09:44:47;99117.09;;;23.20;100.00
7026;BME280;3554;42.132;24.786;2023-05-21T09:47:18;99115.72;;;23.16;100.00
7026;BME280;3554;42.132;24.786;2023-05-21T09:49:45;99112.66;;;23.11;100.00
7026;BME280;3554;42.132;24.786;2023-05-21T09:52:12;99115.34;;;23.02;100.00
7026;BME280;3554;42.132;24.786;2023-05-21T09:54:40;99119.47;;;23.33;99.31
7026;BME280;3554;42.132;24.786;2023-05-21T09:57:07;99119.66;;;23.49;99.33
7026;BME280;3554;42.132;24.786;2023-05-21T09:59:35;99117.84;;;23.50;100.00
7026;BME280;3554;42.132;24.786;2023-05-21T10:02:02;99119.31;;;23.34;99.54
7026;BME280;3554;42.132;24.786;2023-05-21T10:04:29;99119.00;;;23.38;89.01
7026;BME280;3554;42.132;24.786;2023-05-21T10:06:58;99116.34;;;23.01;88.41
7026;BME280;3554;42.132;24.786;2023-05-21T10:09:27;99104.81;;;23.00;96.70
7026;BME280;3554;42.132;24.786;2023-05-21T10:11:56;99115.91;;;22.59;96.04
7026;BME280;3554;42.132;24.786;2023-05-21T10:14:24;99108.59;;;22.52;98.75
7026;BME280;3554;42.132;24.786;2023-05-21T10:16:53;99124.47;;;22.44;100.00
7026;BME280;3554;42.132;24.786;2023-05-21T10:19:21;99117.59;;;22.31;100.00
7026;BME280;3554;42.132;24.786;2023-05-21T10:21:50;99123.09;;;22.20;100.00
7026;BME280;3554;42.132;24.786;2023-05-21T10:24:17;99121.53;;;22.18;100.00
7026;BME280;3554;42.132;24.786;2023-05-21T10:26:45;99118.88;;;22.37;100.00
7026;BME280;3554;42.132;24.786;2023-05-21T10:29:14;99115.91;;;22.40;100.00
7026;BME280;3554;42.132;24.786;2023-05-21T10:31:42;99103.84;;;22.46;98.88
7026;BME280;3554;42.132;24.786;2023-05-21T10:34:13;99109.22;;;22.82;97.91
7026;BME280;3554;42.132;24.786;2023-05-21T10:36:40;99123.13;;;23.32;97.64
7026;BME280;3554;42.132;24.786;2023-05-21T10:39:11;99125.00;;;23.49;96.60
7026;BME280;3554;42.132;24.786;2023-05-21T10:41:45;99126.00;;;23.66;96.35
7026;BME280;3554;42.132;24.786;2023-05-21T10:44:23;99127.50;;;23.78;87.87
7026;BME280;3554;42.132;24.786;2023-05-21T10:50:15;99133.44;;;23.72;100.00
7026;BME280;3554;42.132;24.786;2023-05-21T10:53:01;99143.41;;;23.15;100.00
7026;BME280;3554;42.132;24.786;2023-05-21T10:55:41;99135.97;;;22.73;100.00
7026;BME280;3554;42.132;24.786;2023-05-21T10:58:44;99142.16;;;22.35;100.00
7026;BME280;3554;42.132;24.786;2023-05-21T11:01:17;99154.66;;;22.15;100.00
7026;BME280;3554;42.132;24.786;2023-05-21T11:03:45;99158.72;;;22.29;100.00
7026;BME280;3554;42.132;24.786;2023-05-21T11:06:21;99171.72;;;21.75;100.00
7026;BME280;3554;42.132;24.786;2023-05-21T11:08:49;99167.13;;;21.96;100.00
7026;BME280;3554;42.132;24.786;2023-05-21T11:11:39;99158.25;;;21.76;100.00
7026;BME280;3554;42.132;24.786;2023-05-21T11:14:33;99172.03;;;22.00;100.00
7026;BME280;3554;42.132;24.786;2023-05-21T11:17:02;99184.25;;;21.93;100.00
7026;BME280;3554;42.132;24.786;2023-05-21T11:19:37;99171.66;;;22.05;100.00
7026;BME280;3554;42.132;24.786;2023-05-21T11:22:05;99170.50;;;21.98;100.00
7026;BME280;3554;42.132;24.786;2023-05-21T11:24:36;99184.69;;;22.08;100.00
7026;BME280;3554;42.132;24.786;2023-05-21T11:27:03;99173.44;;;21.85;100.00
7026;BME280;3554;42.132;24.786;2023-05-21T11:29:41;99175.81;;;21.88;100.00
7026;BME280;3554;42.132;24.786;2023-05-21T11:32:27;99174.06;;;21.68;100.00
7026;BME280;3554;42.132;24.786;2023-05-21T11:34:58;99154.56;;;21.58;100.00
7026;BME280;3554;42.132;24.786;2023-05-21T11:37:30;99180.38;;;21.67;100.00
7026;BME280;3554;42.132;24.786;2023-05-21T11:40:21;99190.75;;;21.61;100.00
7026;BME280;3554;42.132;24.786;2023-05-21T11:42:51;99190.75;;;21.70;100.00
7026;BME280;3554;42.132;24.786;2023-05-21T11:45:18;99189.03;;;21.60;100.00
7026;BME280;3554;42.132;24.786;2023-05-21T11:47:47;99194.44;;;21.79;100.00
7026;BME280;3554;42.132;24.786;2023-05-21T11:50:14;99171.38;;;21.59;100.00
7026;BME280;3554;42.132;24.786;2023-05-21T11:52:41;99187.09;;;21.62;100.00
7026;BME280;3554;42.132;24.786;2023-05-21T11:55:09;99192.41;;;21.62;100.00
7026;BME280;3554;42.132;24.786;2023-05-21T11:57:39;99190.28;;;21.86;100.00
7026;BME280;3554;42.132;24.786;2023-05-21T12:00:12;99182.09;;;21.78;100.00
7026;BME280;3554;42.132;24.786;2023-05-21T12:02:44;99175.28;;;21.94;100.00
7026;BME280;3554;42.132;24.786;2023-05-21T12:05:13;99176.00;;;21.96;100.00
7026;BME280;3554;42.132;24.786;2023-05-21T12:07:40;99167.13;;;21.86;100.00
7026;BME280;3554;42.132;24.786;2023-05-21T12:10:07;99135.75;;;21.60;100.00
7026;BME280;3554;42.132;24.786;2023-05-21T12:12:34;99170.56;;;21.68;100.00
7026;BME280;3554;42.132;24.786;2023-05-21T12:15:02;99171.38;;;21.59;100.00
7026;BME280;3554;42.132;24.786;2023-05-21T12:17:29;99161.88;;;21.75;100.00
7026;BME280;3554;42.132;24.786;2023-05-21T12:19:57;99158.09;;;21.78;100.00
7026;BME280;3554;42.132;24.786;2023-05-21T12:22:27;99169.28;;;21.72;100.00
7026;BME280;3554;42.132;24.786;2023-05-21T12:24:54;99172.03;;;21.81;100.00
7026;BME280;3554;42.132;24.786;2023-05-21T12:27:22;99173.63;;;21.63;100.00
7026;BME280;3554;42.132;24.786;2023-05-21T12:29:50;99167.91;;;21.77;100.00
7026;BME280;3554;42.132;24.786;2023-05-21T12:32:19;99157.50;;;21.65;100.00
7026;BME280;3554;42.132;24.786;2023-05-21T12:34:47;99139.81;;;21.54;100.00
7026;BME280;3554;42.132;24.786;2023-05-21T12:37:15;99152.13;;;21.85;100.00
7026;BME280;3554;42.132;24.786;2023-05-21T12:39:46;99129.81;;;21.86;100.00
7026;BME280;3554;42.132;24.786;2023-05-21T12:42:14;99139.78;;;22.22;100.00
7026;BME280;3554;42.132;24.786;2023-05-21T12:44:43;99127.53;;;22.49;100.00
7026;BME280;3554;42.132;24.786;2023-05-21T12:47:10;99131.34;;;22.65;100.00
7026;BME280;3554;42.132;24.786;2023-05-21T12:49:39;99116.91;;;22.95;100.00
7026;BME280;3554;42.132;24.786;2023-05-21T12:52:10;99114.59;;;23.19;100.00
7026;BME280;3554;42.132;24.786;2023-05-21T12:54:39;99111.63;;;23.22;100.00
7026;BME280;3554;42.132;24.786;2023-05-21T12:57:12;99114.81;;;23.25;100.00
7026;BME280;3554;42.132;24.786;2023-05-21T12:59:50;99101.41;;;23.08;100.00
7026;BME280;3554;42.132;24.786;2023-05-21T13:02:21;99094.78;;;23.49;100.00
7026;BME280;3554;42.132;24.786;2023-05-21T13:04:53;99074.06;;;23.33;100.00
7026;BME280;3554;42.132;24.786;2023-05-21T13:07:20;99080.81;;;23.55;100.00